• Join FlightAware (Why Join?)
  • Login
  • US Flag 
01:28AM EST


 

Airport Tracker/Info


-or-


 

Live Flight TrackerFlight Track Log ✈ SKW6345 ✈ 19-Dec-2013 ✈ KASE - KDEN

Flight Track Log - Related Links

Times and Time Zones

All times are in EST time to prevent confusion due to time zone crossing. See the SKW6345 flight status page for this flight to view local times or setup timezone preferences in your user account.

Time Position Orientation Groundspeed Altitude Reporting Facility
EST Latitude Longitude Course Direction KTS MPH feet Rate Location/Type
12:50PM 39.2781 -106.8872 72° East 257 296 10,700  Level Denver Center
12:51PM 39.3069 -106.9589 298° West 239 275 13,700 2,700 Climbing Denver Center
12:53PM 39.3708 -106.3732 101° East  Level Estimated
12:53PM 39.3825 -106.9314 16° North 310 357 16,400  Level Denver Center
12:54PM 39.4077 -106.2491 90° East  Level Estimated
12:54PM 39.3942 -106.8111 83° East 358 412 18,400  Level Denver Center
12:55PM 39.4445 -106.1249 90° East  Level Estimated
12:55PM 39.3736 -106.6447 99° East 390 449 20,600  Level Denver Center
12:56PM 39.4767 -106.0156 72° East  Level Estimated
12:56PM 39.3553 -106.5014 99° East 416 479 21,000  Level Denver Center
12:57PM 39.3494 -106.3361 93° East 415 478 21,000  Level Denver Center
12:58PM 39.3422 -106.1944 94° East 413 475 21,000  Level Denver Center
12:59PM 39.3339 -106.0442 94° East 425 489 21,100 -60 Climbing Denver Center
01:00PM 39.3242 -105.8658 94° East 419 482 20,900 -720 Descending Denver Center
01:01PM 39.3150 -105.6939 94° East 404 465 19,600 -1,140 Descending Denver Center
01:02PM 39.3608 -105.5603 66° East 414 476 18,600 -1,260 Descending Denver Center
01:03PM 39.3972 -105.4219 71° East 394 453 17,100 -1,500 Descending Denver Center
01:04PM 39.4039 -105.2908 86° East 368 423 15,600 -1,380 Descending Denver Center
01:05PM 39.4092 -105.1625 87° East 360 414 14,300 -1,260 Descending Denver Center
01:06PM 39.4153 -105.0300 87° East 346 398 13,000 -780 Descending Denver Center
01:07PM 39.4342 -104.9214 77° East 316 364 12,700 -780 Descending Denver Center
01:08PM 39.4786 -104.8350 56° Northeast 272 313 11,500 -1,020 Descending Denver Center
01:09PM 39.5219 -104.7533 55° Northeast 275 316 10,600 -780 Descending Denver Center
01:10PM 39.5903 -104.7033 29° Northeast 259 298 10,000 -600 Descending Denver Center
01:11PM 39.6514 -104.6650 26° Northeast 246 283 9,400 -960 Descending Denver Center
01:12PM 39.7183 -104.6617 North 224 258 8,000 -1,320 Descending Denver Center
01:13PM 39.7689 -104.6611 360° North 183 211 6,700 -1,020 Descending Denver Center
01:14PM 39.8100 -104.6606 North 142 163 5,900 -600 Descending Denver Center
01:15PM 39.8397 -104.6603 360° North 131 151 5,500 -420 Descending Denver Center